Samut Sakhon, Thailand
Current Conditions -  °F | °C
As of 9:30 PM on Sunday 23 Nov 2014 (Local Time) from VTBS Reporting Station
Clear Clear  
Wind Chill: 86°   Ceiling: Unl
Heat Index: 88°   Visibility: 6mi
Dew Point: 66°   Wind: 7mph
Humidity: 51%   Direction: 330°NNW
Pressure: 29.88"   Gusts: NA
Location:  13.54°N, 100.28°E
Report Text: VTBS 231430Z 33006KT 290V360 CAVOK 30/19 Q1012 NOSIG
Loading
Personal Weather Stations






























Interactive Weather Map New forecast layout! Learn more

10-Day Weather Forecast

Advertisements
Track Severe Weather on mobile